sensor_id;sensor_type;location;lat;lon;timestamp;temperature;humidity
4245;DHT22;2136;48.502;9.194;2024-01-16T00:00:24;1.70;56.10
4245;DHT22;2136;48.502;9.194;2024-01-16T00:02:52;1.60;56.20
4245;DHT22;2136;48.502;9.194;2024-01-16T00:05:19;1.60;56.20
4245;DHT22;2136;48.502;9.194;2024-01-16T00:07:46;1.70;56.20
4245;DHT22;2136;48.502;9.194;2024-01-16T00:10:13;1.70;56.10
4245;DHT22;2136;48.502;9.194;2024-01-16T00:12:40;1.60;55.90
4245;DHT22;2136;48.502;9.194;2024-01-16T00:15:08;1.60;56.10
4245;DHT22;2136;48.502;9.194;2024-01-16T00:17:35;1.60;56.20
4245;DHT22;2136;48.502;9.194;2024-01-16T00:20:04;1.80;56.20
4245;DHT22;2136;48.502;9.194;2024-01-16T00:22:31;1.60;56.20
4245;DHT22;2136;48.502;9.194;2024-01-16T00:24:58;1.60;56.00
4245;DHT22;2136;48.502;9.194;2024-01-16T00:27:25;1.60;56.00
4245;DHT22;2136;48.502;9.194;2024-01-16T00:29:52;1.60;56.10
4245;DHT22;2136;48.502;9.194;2024-01-16T00:32:18;1.50;56.00
4245;DHT22;2136;48.502;9.194;2024-01-16T00:34:45;1.50;56.10
4245;DHT22;2136;48.502;9.194;2024-01-16T00:37:13;1.50;56.20
4245;DHT22;2136;48.502;9.194;2024-01-16T00:39:40;1.50;56.20
4245;DHT22;2136;48.502;9.194;2024-01-16T00:42:07;1.50;56.10
4245;DHT22;2136;48.502;9.194;2024-01-16T00:44:34;1.50;56.10
4245;DHT22;2136;48.502;9.194;2024-01-16T00:47:01;1.50;56.20
4245;DHT22;2136;48.502;9.194;2024-01-16T00:49:28;1.50;56.20
4245;DHT22;2136;48.502;9.194;2024-01-16T00:51:55;1.50;56.30
4245;DHT22;2136;48.502;9.194;2024-01-16T00:54:23;1.50;56.30
4245;DHT22;2136;48.502;9.194;2024-01-16T00:56:49;1.50;56.40
4245;DHT22;2136;48.502;9.194;2024-01-16T00:59:20;1.60;56.40
4245;DHT22;2136;48.502;9.194;2024-01-16T01:01:47;1.70;56.10
4245;DHT22;2136;48.502;9.194;2024-01-16T01:04:14;1.70;56.10
4245;DHT22;2136;48.502;9.194;2024-01-16T01:06:41;1.70;56.10
4245;DHT22;2136;48.502;9.194;2024-01-16T01:09:07;1.70;56.10
4245;DHT22;2136;48.502;9.194;2024-01-16T01:11:38;1.60;55.90
4245;DHT22;2136;48.502;9.194;2024-01-16T01:14:05;1.60;56.00
4245;DHT22;2136;48.502;9.194;2024-01-16T01:16:32;1.60;56.80
4245;DHT22;2136;48.502;9.194;2024-01-16T01:18:59;1.60;56.30
4245;DHT22;2136;48.502;9.194;2024-01-16T01:21:26;1.60;56.20
4245;DHT22;2136;48.502;9.194;2024-01-16T01:23:53;1.60;56.20
4245;DHT22;2136;48.502;9.194;2024-01-16T01:26:20;1.60;56.20
4245;DHT22;2136;48.502;9.194;2024-01-16T01:28:48;1.60;56.20
4245;DHT22;2136;48.502;9.194;2024-01-16T01:31:15;1.60;56.10
4245;DHT22;2136;48.502;9.194;2024-01-16T01:33:42;1.50;56.20
4245;DHT22;2136;48.502;9.194;2024-01-16T01:36:09;1.50;56.10
4245;DHT22;2136;48.502;9.194;2024-01-16T01:38:35;1.50;56.20
4245;DHT22;2136;48.502;9.194;2024-01-16T01:41:02;1.50;56.30
4245;DHT22;2136;48.502;9.194;2024-01-16T01:43:29;1.40;56.20
4245;DHT22;2136;48.502;9.194;2024-01-16T01:46:16;1.40;56.30
4245;DHT22;2136;48.502;9.194;2024-01-16T01:48:45;1.40;56.50
4245;DHT22;2136;48.502;9.194;2024-01-16T01:51:14;1.40;56.50
4245;DHT22;2136;48.502;9.194;2024-01-16T01:53:42;1.40;56.60
4245;DHT22;2136;48.502;9.194;2024-01-16T01:56:12;1.40;56.70
4245;DHT22;2136;48.502;9.194;2024-01-16T01:58:43;1.40;56.60
4245;DHT22;2136;48.502;9.194;2024-01-16T02:01:10;1.40;56.60
4245;DHT22;2136;48.502;9.194;2024-01-16T02:03:42;1.40;56.60
4245;DHT22;2136;48.502;9.194;2024-01-16T02:06:10;1.40;56.60
4245;DHT22;2136;48.502;9.194;2024-01-16T02:08:37;1.40;56.30
4245;DHT22;2136;48.502;9.194;2024-01-16T02:11:04;1.50;56.40
4245;DHT22;2136;48.502;9.194;2024-01-16T02:13:31;1.50;56.40
4245;DHT22;2136;48.502;9.194;2024-01-16T02:15:58;1.50;56.40
4245;DHT22;2136;48.502;9.194;2024-01-16T02:18:26;1.50;56.10
4245;DHT22;2136;48.502;9.194;2024-01-16T02:20:55;1.50;56.00
4245;DHT22;2136;48.502;9.194;2024-01-16T02:23:28;1.50;56.10
4245;DHT22;2136;48.502;9.194;2024-01-16T02:25:55;1.50;56.10
4245;DHT22;2136;48.502;9.194;2024-01-16T02:28:22;1.50;56.00
4245;DHT22;2136;48.502;9.194;2024-01-16T02:30:49;1.40;55.90
4245;DHT22;2136;48.502;9.194;2024-01-16T02:33:16;1.40;56.00
4245;DHT22;2136;48.502;9.194;2024-01-16T02:35:43;1.40;55.90
4245;DHT22;2136;48.502;9.194;2024-01-16T02:38:10;1.40;55.90
4245;DHT22;2136;48.502;9.194;2024-01-16T02:40:38;1.30;55.80
4245;DHT22;2136;48.502;9.194;2024-01-16T02:43:06;1.30;55.80
4245;DHT22;2136;48.502;9.194;2024-01-16T02:45:33;1.20;55.70
4245;DHT22;2136;48.502;9.194;2024-01-16T02:48:00;1.20;55.90
4245;DHT22;2136;48.502;9.194;2024-01-16T02:50:27;1.10;55.80
4245;DHT22;2136;48.502;9.194;2024-01-16T02:52:53;1.10;55.90
4245;DHT22;2136;48.502;9.194;2024-01-16T02:55:20;1.00;56.00
4245;DHT22;2136;48.502;9.194;2024-01-16T02:57:48;1.00;56.30
4245;DHT22;2136;48.502;9.194;2024-01-16T03:00:16;0.90;56.40
4245;DHT22;2136;48.502;9.194;2024-01-16T03:02:43;0.90;56.50
4245;DHT22;2136;48.502;9.194;2024-01-16T03:05:09;0.80;56.50
4245;DHT22;2136;48.502;9.194;2024-01-16T03:07:36;0.80;56.60
4245;DHT22;2136;48.502;9.194;2024-01-16T03:10:04;0.80;56.60
4245;DHT22;2136;48.502;9.194;2024-01-16T03:12:31;0.70;56.50
4245;DHT22;2136;48.502;9.194;2024-01-16T03:14:59;0.70;56.60
4245;DHT22;2136;48.502;9.194;2024-01-16T03:17:26;0.60;57.20
4245;DHT22;2136;48.502;9.194;2024-01-16T03:19:52;0.60;56.80
4245;DHT22;2136;48.502;9.194;2024-01-16T03:22:19;0.50;56.70
4245;DHT22;2136;48.502;9.194;2024-01-16T03:24:48;0.50;56.70
4245;DHT22;2136;48.502;9.194;2024-01-16T03:27:15;0.50;56.90
4245;DHT22;2136;48.502;9.194;2024-01-16T03:29:42;0.40;57.00
4245;DHT22;2136;48.502;9.194;2024-01-16T03:32:10;0.40;57.10
4245;DHT22;2136;48.502;9.194;2024-01-16T03:34:37;0.40;57.20
4245;DHT22;2136;48.502;9.194;2024-01-16T03:37:04;0.30;57.30
4245;DHT22;2136;48.502;9.194;2024-01-16T03:39:30;0.30;57.40
4245;DHT22;2136;48.502;9.194;2024-01-16T03:41:57;0.20;57.40
4245;DHT22;2136;48.502;9.194;2024-01-16T03:44:24;0.20;57.70
4245;DHT22;2136;48.502;9.194;2024-01-16T03:46:51;0.20;57.80
4245;DHT22;2136;48.502;9.194;2024-01-16T03:49:19;0.20;57.70
4245;DHT22;2136;48.502;9.194;2024-01-16T03:51:46;0.20;57.60
4245;DHT22;2136;48.502;9.194;2024-01-16T03:54:13;0.10;57.60
4245;DHT22;2136;48.502;9.194;2024-01-16T03:56:40;0.10;57.50
4245;DHT22;2136;48.502;9.194;2024-01-16T03:59:07;0.10;57.50
4245;DHT22;2136;48.502;9.194;2024-01-16T04:01:34;0.00;57.60
4245;DHT22;2136;48.502;9.194;2024-01-16T04:04:02;0.00;57.90
4245;DHT22;2136;48.502;9.194;2024-01-16T04:06:33;0.00;57.90
4245;DHT22;2136;48.502;9.194;2024-01-16T04:09:00;0.00;58.10
4245;DHT22;2136;48.502;9.194;2024-01-16T04:11:27;-0.10;58.00
4245;DHT22;2136;48.502;9.194;2024-01-16T04:13:53;-0.10;57.90
4245;DHT22;2136;48.502;9.194;2024-01-16T04:16:20;-0.10;57.80
4245;DHT22;2136;48.502;9.194;2024-01-16T04:18:47;-0.10;58.00
4245;DHT22;2136;48.502;9.194;2024-01-16T04:21:14;-0.20;58.10
4245;DHT22;2136;48.502;9.194;2024-01-16T04:23:42;-0.20;58.00
4245;DHT22;2136;48.502;9.194;2024-01-16T04:26:10;-0.20;58.10
4245;DHT22;2136;48.502;9.194;2024-01-16T04:28:36;-0.20;58.10
4245;DHT22;2136;48.502;9.194;2024-01-16T04:31:04;-0.20;58.10
4245;DHT22;2136;48.502;9.194;2024-01-16T04:33:31;-0.20;58.70
4245;DHT22;2136;48.502;9.194;2024-01-16T04:35:58;-0.20;58.20
4245;DHT22;2136;48.502;9.194;2024-01-16T04:38:25;-0.20;58.30
4245;DHT22;2136;48.502;9.194;2024-01-16T04:40:53;-0.20;58.50
4245;DHT22;2136;48.502;9.194;2024-01-16T04:43:21;-0.30;58.50
4245;DHT22;2136;48.502;9.194;2024-01-16T04:45:47;-0.30;58.60
4245;DHT22;2136;48.502;9.194;2024-01-16T04:48:14;-0.30;58.70
4245;DHT22;2136;48.502;9.194;2024-01-16T04:50:41;-0.20;59.20
4245;DHT22;2136;48.502;9.194;2024-01-16T04:53:08;-0.20;59.10
4245;DHT22;2136;48.502;9.194;2024-01-16T04:55:35;-0.20;59.10
4245;DHT22;2136;48.502;9.194;2024-01-16T04:58:04;-0.20;58.90
4245;DHT22;2136;48.502;9.194;2024-01-16T05:00:31;-0.30;58.80
4245;DHT22;2136;48.502;9.194;2024-01-16T05:02:58;-0.30;58.90
4245;DHT22;2136;48.502;9.194;2024-01-16T05:05:25;-0.40;58.70
4245;DHT22;2136;48.502;9.194;2024-01-16T05:07:52;-0.40;58.70
4245;DHT22;2136;48.502;9.194;2024-01-16T05:10:19;-0.30;59.00
4245;DHT22;2136;48.502;9.194;2024-01-16T05:12:46;-0.30;59.10
4245;DHT22;2136;48.502;9.194;2024-01-16T05:15:14;-0.40;59.10
4245;DHT22;2136;48.502;9.194;2024-01-16T05:17:41;-0.40;59.20
4245;DHT22;2136;48.502;9.194;2024-01-16T05:20:08;-0.40;59.20
4245;DHT22;2136;48.502;9.194;2024-01-16T05:22:36;-0.40;59.50
4245;DHT22;2136;48.502;9.194;2024-01-16T05:25:04;-0.40;59.50
4245;DHT22;2136;48.502;9.194;2024-01-16T05:27:32;-0.50;59.80
4245;DHT22;2136;48.502;9.194;2024-01-16T05:29:59;-0.50;59.90
4245;DHT22;2136;48.502;9.194;2024-01-16T05:32:27;-0.50;60.00
4245;DHT22;2136;48.502;9.194;2024-01-16T05:34:54;-0.40;60.20
4245;DHT22;2136;48.502;9.194;2024-01-16T05:37:21;-0.50;60.30
4245;DHT22;2136;48.502;9.194;2024-01-16T05:39:48;-0.50;60.20
4245;DHT22;2136;48.502;9.194;2024-01-16T05:42:15;-0.40;60.20
4245;DHT22;2136;48.502;9.194;2024-01-16T05:44:43;-0.50;60.20
4245;DHT22;2136;48.502;9.194;2024-01-16T05:47:09;-0.50;60.00
4245;DHT22;2136;48.502;9.194;2024-01-16T05:49:38;-0.50;59.80
4245;DHT22;2136;48.502;9.194;2024-01-16T05:52:07;-0.50;59.90
4245;DHT22;2136;48.502;9.194;2024-01-16T05:54:34;-0.50;59.90
4245;DHT22;2136;48.502;9.194;2024-01-16T05:57:01;-0.50;60.00
4245;DHT22;2136;48.502;9.194;2024-01-16T05:59:31;-0.60;59.80
4245;DHT22;2136;48.502;9.194;2024-01-16T06:02:01;-0.60;60.20
4245;DHT22;2136;48.502;9.194;2024-01-16T06:04:31;-0.60;60.00
4245;DHT22;2136;48.502;9.194;2024-01-16T06:07:00;-0.50;59.90
4245;DHT22;2136;48.502;9.194;2024-01-16T06:09:29;-0.50;59.90
4245;DHT22;2136;48.502;9.194;2024-01-16T06:11:59;-0.50;59.80
4245;DHT22;2136;48.502;9.194;2024-01-16T06:14:27;-0.50;59.70
4245;DHT22;2136;48.502;9.194;2024-01-16T06:16:58;-0.50;59.60
4245;DHT22;2136;48.502;9.194;2024-01-16T06:19:27;-0.40;59.60
4245;DHT22;2136;48.502;9.194;2024-01-16T06:21:55;-0.40;59.60
4245;DHT22;2136;48.502;9.194;2024-01-16T06:24:24;-0.40;59.50
4245;DHT22;2136;48.502;9.194;2024-01-16T06:26:52;-0.50;59.30
4245;DHT22;2136;48.502;9.194;2024-01-16T06:29:27;-0.50;59.20
4245;DHT22;2136;48.502;9.194;2024-01-16T06:31:56;-0.50;59.20
4245;DHT22;2136;48.502;9.194;2024-01-16T06:34:27;-0.50;59.10
4245;DHT22;2136;48.502;9.194;2024-01-16T06:36:56;-0.60;59.00
4245;DHT22;2136;48.502;9.194;2024-01-16T06:39:25;-0.60;59.10
4245;DHT22;2136;48.502;9.194;2024-01-16T06:41:52;-0.60;58.90
4245;DHT22;2136;48.502;9.194;2024-01-16T06:44:19;-0.60;58.90
4245;DHT22;2136;48.502;9.194;2024-01-16T06:46:46;-0.60;58.80
4245;DHT22;2136;48.502;9.194;2024-01-16T06:49:13;-0.60;58.80
4245;DHT22;2136;48.502;9.194;2024-01-16T06:51:39;-0.70;58.80
4245;DHT22;2136;48.502;9.194;2024-01-16T06:54:06;-0.70;58.80
4245;DHT22;2136;48.502;9.194;2024-01-16T06:56:34;-0.70;59.00
4245;DHT22;2136;48.502;9.194;2024-01-16T06:59:02;-0.70;59.20
4245;DHT22;2136;48.502;9.194;2024-01-16T07:01:30;-0.70;59.50
4245;DHT22;2136;48.502;9.194;2024-01-16T07:04:00;-0.70;59.50
4245;DHT22;2136;48.502;9.194;2024-01-16T07:06:29;-0.70;59.50
4245;DHT22;2136;48.502;9.194;2024-01-16T07:08:57;-0.70;59.40
4245;DHT22;2136;48.502;9.194;2024-01-16T07:11:31;-0.70;59.80
4245;DHT22;2136;48.502;9.194;2024-01-16T07:14:06;-0.80;59.00
4245;DHT22;2136;48.502;9.194;2024-01-16T07:16:36;-0.80;59.10
4245;DHT22;2136;48.502;9.194;2024-01-16T07:19:06;-0.80;59.00
4245;DHT22;2136;48.502;9.194;2024-01-16T07:21:35;-0.80;59.10
4245;DHT22;2136;48.502;9.194;2024-01-16T07:24:04;-0.80;59.20
4245;DHT22;2136;48.502;9.194;2024-01-16T07:26:32;-0.80;59.20
4245;DHT22;2136;48.502;9.194;2024-01-16T07:29:02;-0.80;59.20
4245;DHT22;2136;48.502;9.194;2024-01-16T07:31:31;-0.90;59.00
4245;DHT22;2136;48.502;9.194;2024-01-16T07:33:59;-0.90;59.00
4245;DHT22;2136;48.502;9.194;2024-01-16T07:36:27;-0.90;59.00
4245;DHT22;2136;48.502;9.194;2024-01-16T07:38:54;-0.90;59.10
4245;DHT22;2136;48.502;9.194;2024-01-16T07:41:22;-0.90;59.10
4245;DHT22;2136;48.502;9.194;2024-01-16T07:43:49;-0.90;59.10
4245;DHT22;2136;48.502;9.194;2024-01-16T07:46:24;-0.90;59.10
4245;DHT22;2136;48.502;9.194;2024-01-16T07:48:53;-0.90;59.20
4245;DHT22;2136;48.502;9.194;2024-01-16T07:51:22;-0.90;59.30
4245;DHT22;2136;48.502;9.194;2024-01-16T07:54:04;-0.90;59.40
4245;DHT22;2136;48.502;9.194;2024-01-16T07:56:32;-0.90;59.30
4245;DHT22;2136;48.502;9.194;2024-01-16T07:59:01;-0.90;59.20
4245;DHT22;2136;48.502;9.194;2024-01-16T08:01:30;-0.80;59.30
4245;DHT22;2136;48.502;9.194;2024-01-16T08:03:58;-0.80;59.30
4245;DHT22;2136;48.502;9.194;2024-01-16T08:06:35;-0.80;59.30
4245;DHT22;2136;48.502;9.194;2024-01-16T08:09:03;-0.80;59.40
4245;DHT22;2136;48.502;9.194;2024-01-16T08:11:30;-0.70;59.30
4245;DHT22;2136;48.502;9.194;2024-01-16T08:14:02;-0.70;59.20
4245;DHT22;2136;48.502;9.194;2024-01-16T08:16:31;-0.60;59.30
4245;DHT22;2136;48.502;9.194;2024-01-16T08:19:01;-0.50;59.30
4245;DHT22;2136;48.502;9.194;2024-01-16T08:21:30;-0.40;59.30
4245;DHT22;2136;48.502;9.194;2024-01-16T08:23:56;-0.30;59.00
4245;DHT22;2136;48.502;9.194;2024-01-16T08:26:24;-0.30;58.50
4245;DHT22;2136;48.502;9.194;2024-01-16T08:28:51;-0.20;58.50
4245;DHT22;2136;48.502;9.194;2024-01-16T08:31:18;-0.20;58.50
4245;DHT22;2136;48.502;9.194;2024-01-16T08:33:46;-0.10;58.50
4245;DHT22;2136;48.502;9.194;2024-01-16T08:36:14;-0.10;58.20
4245;DHT22;2136;48.502;9.194;2024-01-16T08:38:41;-0.10;57.90
4245;DHT22;2136;48.502;9.194;2024-01-16T08:41:07;0.00;57.90
4245;DHT22;2136;48.502;9.194;2024-01-16T08:43:34;0.00;57.80
4245;DHT22;2136;48.502;9.194;2024-01-16T08:46:01;0.10;57.70
4245;DHT22;2136;48.502;9.194;2024-01-16T08:48:29;0.20;57.80
4245;DHT22;2136;48.502;9.194;2024-01-16T08:50:57;0.30;57.80
4245;DHT22;2136;48.502;9.194;2024-01-16T08:53:24;0.40;57.90
4245;DHT22;2136;48.502;9.194;2024-01-16T08:55:51;0.50;57.60
4245;DHT22;2136;48.502;9.194;2024-01-16T08:58:18;0.60;57.50
4245;DHT22;2136;48.502;9.194;2024-01-16T09:00:45;0.70;57.90
4245;DHT22;2136;48.502;9.194;2024-01-16T09:03:12;0.70;57.00
4245;DHT22;2136;48.502;9.194;2024-01-16T09:05:39;0.80;57.50
4245;DHT22;2136;48.502;9.194;2024-01-16T09:08:07;0.90;56.90
4245;DHT22;2136;48.502;9.194;2024-01-16T09:10:34;1.00;56.50
4245;DHT22;2136;48.502;9.194;2024-01-16T09:13:01;1.10;56.40
4245;DHT22;2136;48.502;9.194;2024-01-16T09:15:28;1.20;56.00
4245;DHT22;2136;48.502;9.194;2024-01-16T09:17:54;1.30;56.00
4245;DHT22;2136;48.502;9.194;2024-01-16T09:20:21;1.50;56.10
4245;DHT22;2136;48.502;9.194;2024-01-16T09:22:49;1.70;56.00
4245;DHT22;2136;48.502;9.194;2024-01-16T09:25:17;1.80;55.60
4245;DHT22;2136;48.502;9.194;2024-01-16T09:27:44;2.00;55.20
4245;DHT22;2136;48.502;9.194;2024-01-16T09:30:11;2.20;54.90
4245;DHT22;2136;48.502;9.194;2024-01-16T09:32:38;2.30;55.00
4245;DHT22;2136;48.502;9.194;2024-01-16T09:35:05;2.40;54.50
4245;DHT22;2136;48.502;9.194;2024-01-16T09:37:34;2.50;54.20
4245;DHT22;2136;48.502;9.194;2024-01-16T09:40:01;2.60;54.20
4245;DHT22;2136;48.502;9.194;2024-01-16T09:42:32;2.60;53.80
4245;DHT22;2136;48.502;9.194;2024-01-16T09:45:00;2.70;53.50
4245;DHT22;2136;48.502;9.194;2024-01-16T09:47:29;2.70;53.40
4245;DHT22;2136;48.502;9.194;2024-01-16T09:49:57;2.70;53.30
4245;DHT22;2136;48.502;9.194;2024-01-16T09:52:25;2.80;53.30
4245;DHT22;2136;48.502;9.194;2024-01-16T09:54:52;2.80;53.10
4245;DHT22;2136;48.502;9.194;2024-01-16T09:57:19;2.90;53.10
4245;DHT22;2136;48.502;9.194;2024-01-16T09:59:50;2.90;52.90
4245;DHT22;2136;48.502;9.194;2024-01-16T10:02:19;2.90;52.80
4245;DHT22;2136;48.502;9.194;2024-01-16T10:04:46;2.90;52.50
4245;DHT22;2136;48.502;9.194;2024-01-16T10:07:14;3.00;52.70
4245;DHT22;2136;48.502;9.194;2024-01-16T10:09:43;3.10;52.90
4245;DHT22;2136;48.502;9.194;2024-01-16T10:12:10;3.30;52.90
4245;DHT22;2136;48.502;9.194;2024-01-16T10:14:37;3.50;52.60
4245;DHT22;2136;48.502;9.194;2024-01-16T10:17:07;3.50;52.20
4245;DHT22;2136;48.502;9.194;2024-01-16T10:19:48;3.60;51.90
4245;DHT22;2136;48.502;9.194;2024-01-16T10:22:19;3.70;51.90
4245;DHT22;2136;48.502;9.194;2024-01-16T10:24:47;3.70;51.60
4245;DHT22;2136;48.502;9.194;2024-01-16T10:27:15;3.70;51.50
4245;DHT22;2136;48.502;9.194;2024-01-16T10:29:54;3.80;51.50
4245;DHT22;2136;48.502;9.194;2024-01-16T10:32:30;3.80;51.90
4245;DHT22;2136;48.502;9.194;2024-01-16T10:35:07;3.90;51.20
4245;DHT22;2136;48.502;9.194;2024-01-16T10:37:42;3.70;50.90
4245;DHT22;2136;48.502;9.194;2024-01-16T10:40:09;3.70;50.90
4245;DHT22;2136;48.502;9.194;2024-01-16T10:42:37;3.90;51.10
4245;DHT22;2136;48.502;9.194;2024-01-16T10:45:05;4.30;51.80
4245;DHT22;2136;48.502;9.194;2024-01-16T10:47:34;4.80;51.60
4245;DHT22;2136;48.502;9.194;2024-01-16T10:50:04;5.90;51.70
4245;DHT22;2136;48.502;9.194;2024-01-16T10:52:33;6.70;50.80
4245;DHT22;2136;48.502;9.194;2024-01-16T10:55:03;7.40;49.50
4245;DHT22;2136;48.502;9.194;2024-01-16T10:57:31;8.00;48.70
4245;DHT22;2136;48.502;9.194;2024-01-16T11:00:02;8.50;47.70
4245;DHT22;2136;48.502;9.194;2024-01-16T11:02:37;9.10;46.90
4245;DHT22;2136;48.502;9.194;2024-01-16T11:05:05;10.00;45.60
4245;DHT22;2136;48.502;9.194;2024-01-16T11:07:34;10.90;44.80
4245;DHT22;2136;48.502;9.194;2024-01-16T11:10:02;12.00;44.10
4245;DHT22;2136;48.502;9.194;2024-01-16T11:12:30;12.90;43.20
4245;DHT22;2136;48.502;9.194;2024-01-16T11:15:00;13.80;41.90
4245;DHT22;2136;48.502;9.194;2024-01-16T11:17:28;15.10;41.60
4245;DHT22;2136;48.502;9.194;2024-01-16T11:19:58;16.40;40.80
4245;DHT22;2136;48.502;9.194;2024-01-16T11:22:26;17.80;40.00
4245;DHT22;2136;48.502;9.194;2024-01-16T11:25:09;19.20;38.40
4245;DHT22;2136;48.502;9.194;2024-01-16T11:27:37;20.50;36.30
4245;DHT22;2136;48.502;9.194;2024-01-16T11:30:05;21.90;35.50
4245;DHT22;2136;48.502;9.194;2024-01-16T11:32:34;22.60;33.70
4245;DHT22;2136;48.502;9.194;2024-01-16T11:35:03;23.10;32.90
4245;DHT22;2136;48.502;9.194;2024-01-16T11:37:30;23.50;30.90
4245;DHT22;2136;48.502;9.194;2024-01-16T11:40:21;23.70;29.40
4245;DHT22;2136;48.502;9.194;2024-01-16T11:42:48;23.60;28.40
4245;DHT22;2136;48.502;9.194;2024-01-16T11:45:49;23.20;28.00
4245;DHT22;2136;48.502;9.194;2024-01-16T11:48:17;22.40;27.00
4245;DHT22;2136;48.502;9.194;2024-01-16T11:50:47;21.10;26.50
4245;DHT22;2136;48.502;9.194;2024-01-16T11:53:34;19.80;26.20
4245;DHT22;2136;48.502;9.194;2024-01-16T11:56:16;18.40;26.40
4245;DHT22;2136;48.502;9.194;2024-01-16T11:59:01;16.90;26.40
4245;DHT22;2136;48.502;9.194;2024-01-16T12:01:31;15.50;27.20
4245;DHT22;2136;48.502;9.194;2024-01-16T12:04:04;14.20;27.80
4245;DHT22;2136;48.502;9.194;2024-01-16T12:06:34;13.10;28.60
4245;DHT22;2136;48.502;9.194;2024-01-16T12:09:14;12.10;29.40
4245;DHT22;2136;48.502;9.194;2024-01-16T12:11:41;11.20;30.00
4245;DHT22;2136;48.502;9.194;2024-01-16T12:14:10;10.50;30.80
4245;DHT22;2136;48.502;9.194;2024-01-16T12:16:38;9.90;32.60
4245;DHT22;2136;48.502;9.194;2024-01-16T12:19:06;9.30;33.60
4245;DHT22;2136;48.502;9.194;2024-01-16T12:21:35;8.80;34.40
4245;DHT22;2136;48.502;9.194;2024-01-16T12:24:06;8.20;34.90
4245;DHT22;2136;48.502;9.194;2024-01-16T12:26:33;7.80;36.00
4245;DHT22;2136;48.502;9.194;2024-01-16T12:28:59;7.50;36.50
4245;DHT22;2136;48.502;9.194;2024-01-16T12:31:27;7.10;36.90
4245;DHT22;2136;48.502;9.194;2024-01-16T12:34:02;6.80;38.00
4245;DHT22;2136;48.502;9.194;2024-01-16T12:36:30;6.60;38.70
4245;DHT22;2136;48.502;9.194;2024-01-16T12:38:58;6.30;39.50
4245;DHT22;2136;48.502;9.194;2024-01-16T12:41:26;6.10;39.60
4245;DHT22;2136;48.502;9.194;2024-01-16T12:43:54;6.00;40.70
4245;DHT22;2136;48.502;9.194;2024-01-16T12:46:21;5.80;41.20
4245;DHT22;2136;48.502;9.194;2024-01-16T12:48:48;5.70;41.40
4245;DHT22;2136;48.502;9.194;2024-01-16T12:51:20;5.60;41.50
4245;DHT22;2136;48.502;9.194;2024-01-16T12:53:48;5.50;41.70
4245;DHT22;2136;48.502;9.194;2024-01-16T12:56:19;5.40;42.10
4245;DHT22;2136;48.502;9.194;2024-01-16T12:58:47;5.30;42.20
4245;DHT22;2136;48.502;9.194;2024-01-16T13:01:24;5.20;42.40
4245;DHT22;2136;48.502;9.194;2024-01-16T13:03:51;5.20;42.40
4245;DHT22;2136;48.502;9.194;2024-01-16T13:06:19;5.10;42.30
4245;DHT22;2136;48.502;9.194;2024-01-16T13:08:46;5.10;42.70
4245;DHT22;2136;48.502;9.194;2024-01-16T13:11:13;5.00;42.50
4245;DHT22;2136;48.502;9.194;2024-01-16T13:13:46;4.90;42.80
4245;DHT22;2136;48.502;9.194;2024-01-16T13:16:15;4.90;42.80
4245;DHT22;2136;48.502;9.194;2024-01-16T13:18:43;4.80;42.70
4245;DHT22;2136;48.502;9.194;2024-01-16T13:21:10;4.80;42.80
4245;DHT22;2136;48.502;9.194;2024-01-16T13:23:36;4.90;43.00
4245;DHT22;2136;48.502;9.194;2024-01-16T13:26:03;4.90;43.20
4245;DHT22;2136;48.502;9.194;2024-01-16T13:28:32;4.90;43.20
4245;DHT22;2136;48.502;9.194;2024-01-16T13:31:00;4.90;43.30
4245;DHT22;2136;48.502;9.194;2024-01-16T13:33:29;4.90;43.10
4245;DHT22;2136;48.502;9.194;2024-01-16T13:35:57;4.90;43.30
4245;DHT22;2136;48.502;9.194;2024-01-16T13:38:24;5.00;43.40
4245;DHT22;2136;48.502;9.194;2024-01-16T13:40:51;5.20;43.70
4245;DHT22;2136;48.502;9.194;2024-01-16T13:43:17;5.50;43.80
4245;DHT22;2136;48.502;9.194;2024-01-16T13:45:44;5.90;43.30
4245;DHT22;2136;48.502;9.194;2024-01-16T13:48:16;6.20;42.60
4245;DHT22;2136;48.502;9.194;2024-01-16T13:50:43;6.60;42.10
4245;DHT22;2136;48.502;9.194;2024-01-16T13:53:11;7.10;41.70
4245;DHT22;2136;48.502;9.194;2024-01-16T13:55:39;7.40;41.00
4245;DHT22;2136;48.502;9.194;2024-01-16T13:58:06;7.80;40.70
4245;DHT22;2136;48.502;9.194;2024-01-16T14:00:33;7.90;40.30
4245;DHT22;2136;48.502;9.194;2024-01-16T14:03:00;7.70;39.60
4245;DHT22;2136;48.502;9.194;2024-01-16T14:05:30;7.40;39.30
4245;DHT22;2136;48.502;9.194;2024-01-16T14:07:57;7.10;39.20
4245;DHT22;2136;48.502;9.194;2024-01-16T14:10:24;6.70;39.20
4245;DHT22;2136;48.502;9.194;2024-01-16T14:12:51;6.50;39.40
4245;DHT22;2136;48.502;9.194;2024-01-16T14:15:19;6.20;39.70
4245;DHT22;2136;48.502;9.194;2024-01-16T14:17:50;6.00;40.20
4245;DHT22;2136;48.502;9.194;2024-01-16T14:20:18;5.70;40.50
4245;DHT22;2136;48.502;9.194;2024-01-16T14:22:50;5.60;40.70
4245;DHT22;2136;48.502;9.194;2024-01-16T14:25:17;5.40;41.10
4245;DHT22;2136;48.502;9.194;2024-01-16T14:27:47;5.30;41.20
4245;DHT22;2136;48.502;9.194;2024-01-16T14:30:15;5.10;41.30
4245;DHT22;2136;48.502;9.194;2024-01-16T14:32:44;5.00;41.60
4245;DHT22;2136;48.502;9.194;2024-01-16T14:35:13;4.90;42.20
4245;DHT22;2136;48.502;9.194;2024-01-16T14:37:42;4.80;42.50
4245;DHT22;2136;48.502;9.194;2024-01-16T14:40:11;4.70;42.50
4245;DHT22;2136;48.502;9.194;2024-01-16T14:42:41;4.70;42.90
4245;DHT22;2136;48.502;9.194;2024-01-16T14:45:10;4.60;42.80
4245;DHT22;2136;48.502;9.194;2024-01-16T14:47:37;4.50;42.70
4245;DHT22;2136;48.502;9.194;2024-01-16T14:50:05;4.40;42.70
4245;DHT22;2136;48.502;9.194;2024-01-16T14:52:32;4.40;43.40
4245;DHT22;2136;48.502;9.194;2024-01-16T14:55:00;4.30;43.30
4245;DHT22;2136;48.502;9.194;2024-01-16T14:57:30;4.20;43.50
4245;DHT22;2136;48.502;9.194;2024-01-16T14:59:57;4.40;44.00
4245;DHT22;2136;48.502;9.194;2024-01-16T15:02:24;4.20;44.00
4245;DHT22;2136;48.502;9.194;2024-01-16T15:04:51;4.10;43.70
4245;DHT22;2136;48.502;9.194;2024-01-16T15:07:18;4.10;44.50
4245;DHT22;2136;48.502;9.194;2024-01-16T15:09:45;4.00;44.80
4245;DHT22;2136;48.502;9.194;2024-01-16T15:12:12;4.00;45.10
4245;DHT22;2136;48.502;9.194;2024-01-16T15:14:40;3.90;45.00
4245;DHT22;2136;48.502;9.194;2024-01-16T15:17:07;4.00;44.90
4245;DHT22;2136;48.502;9.194;2024-01-16T15:19:37;4.00;45.00
4245;DHT22;2136;48.502;9.194;2024-01-16T15:22:04;4.10;45.50
4245;DHT22;2136;48.502;9.194;2024-01-16T15:24:30;4.10;45.50
4245;DHT22;2136;48.502;9.194;2024-01-16T15:26:58;4.00;45.70
4245;DHT22;2136;48.502;9.194;2024-01-16T15:29:25;4.00;46.30
4245;DHT22;2136;48.502;9.194;2024-01-16T15:31:53;3.90;46.30
4245;DHT22;2136;48.502;9.194;2024-01-16T15:34:20;3.80;46.60
4245;DHT22;2136;48.502;9.194;2024-01-16T15:36:47;3.70;47.20
4245;DHT22;2136;48.502;9.194;2024-01-16T15:39:14;3.60;47.30
4245;DHT22;2136;48.502;9.194;2024-01-16T15:41:42;3.50;47.50
4245;DHT22;2136;48.502;9.194;2024-01-16T15:44:09;3.40;47.80
4245;DHT22;2136;48.502;9.194;2024-01-16T15:46:56;3.30;47.90
4245;DHT22;2136;48.502;9.194;2024-01-16T15:49:23;3.20;48.40
4245;DHT22;2136;48.502;9.194;2024-01-16T15:51:50;3.10;48.40
4245;DHT22;2136;48.502;9.194;2024-01-16T15:54:17;3.00;48.50
4245;DHT22;2136;48.502;9.194;2024-01-16T15:56:44;2.90;48.90
4245;DHT22;2136;48.502;9.194;2024-01-16T15:59:11;2.80;49.50
4245;DHT22;2136;48.502;9.194;2024-01-16T16:01:38;2.70;49.50
4245;DHT22;2136;48.502;9.194;2024-01-16T16:04:06;2.60;49.30
4245;DHT22;2136;48.502;9.194;2024-01-16T16:06:34;2.60;49.60
4245;DHT22;2136;48.502;9.194;2024-01-16T16:09:01;2.40;49.70
4245;DHT22;2136;48.502;9.194;2024-01-16T16:11:28;2.40;50.40
4245;DHT22;2136;48.502;9.194;2024-01-16T16:13:59;2.30;50.60
4245;DHT22;2136;48.502;9.194;2024-01-16T16:16:26;2.40;50.60
4245;DHT22;2136;48.502;9.194;2024-01-16T16:18:53;2.20;50.80